sensor_id;sensor_type;location;lat;lon;timestamp;P1;durP1;ratioP1;P2;durP2;ratioP2
45909;SDS011;31622;55.416;37.840;2022-11-14T00:02:05;0.47;;;0.20;;
45909;SDS011;31622;55.416;37.840;2022-11-14T00:04:49;0.50;;;0.20;;
45909;SDS011;31622;55.416;37.840;2022-11-14T00:07:33;0.40;;;0.20;;
45909;SDS011;31622;55.416;37.840;2022-11-14T00:10:18;2.20;;;0.28;;
45909;SDS011;31622;55.416;37.840;2022-11-14T00:13:02;0.85;;;0.22;;
45909;SDS011;31622;55.416;37.840;2022-11-14T00:15:50;4.57;;;0.20;;
45909;SDS011;31622;55.416;37.840;2022-11-14T00:18:37;0.55;;;0.20;;
45909;SDS011;31622;55.416;37.840;2022-11-14T00:21:21;1.27;;;0.20;;
45909;SDS011;31622;55.416;37.840;2022-11-14T00:24:05;0.30;;;0.10;;
45909;SDS011;31622;55.416;37.840;2022-11-14T00:26:50;0.20;;;0.10;;
45909;SDS011;31622;55.416;37.840;2022-11-14T00:29:33;0.40;;;0.20;;
45909;SDS011;31622;55.416;37.840;2022-11-14T00:32:17;1.00;;;0.20;;
45909;SDS011;31622;55.416;37.840;2022-11-14T00:35:02;1.25;;;0.20;;
45909;SDS011;31622;55.416;37.840;2022-11-14T00:37:47;0.70;;;0.10;;
45909;SDS011;31622;55.416;37.840;2022-11-14T00:40:31;0.20;;;0.10;;
45909;SDS011;31622;55.416;37.840;2022-11-14T00:43:15;3.40;;;0.20;;
45909;SDS011;31622;55.416;37.840;2022-11-14T00:45:59;2.65;;;0.20;;
45909;SDS011;31622;55.416;37.840;2022-11-14T00:48:43;1.48;;;0.20;;
45909;SDS011;31622;55.416;37.840;2022-11-14T00:51:27;0.50;;;0.10;;
45909;SDS011;31622;55.416;37.840;2022-11-14T00:54:10;0.65;;;0.22;;
45909;SDS011;31622;55.416;37.840;2022-11-14T00:56:54;2.45;;;0.50;;
45909;SDS011;31622;55.416;37.840;2022-11-14T00:59:38;1.38;;;0.20;;
45909;SDS011;31622;55.416;37.840;2022-11-14T01:02:22;0.30;;;0.10;;
45909;SDS011;31622;55.416;37.840;2022-11-14T01:05:07;0.60;;;0.35;;
45909;SDS011;31622;55.416;37.840;2022-11-14T01:07:51;0.52;;;0.10;;
45909;SDS011;31622;55.416;37.840;2022-11-14T01:10:39;1.30;;;0.20;;
45909;SDS011;31622;55.416;37.840;2022-11-14T01:13:24;0.50;;;0.40;;
45909;SDS011;31622;55.416;37.840;2022-11-14T01:16:09;0.50;;;0.17;;
45909;SDS011;31622;55.416;37.840;2022-11-14T01:18:53;0.10;;;0.10;;
45909;SDS011;31622;55.416;37.840;2022-11-14T01:21:37;0.85;;;0.30;;
45909;SDS011;31622;55.416;37.840;2022-11-14T01:24:21;0.38;;;0.15;;
45909;SDS011;31622;55.416;37.840;2022-11-14T01:27:05;0.38;;;0.20;;
45909;SDS011;31622;55.416;37.840;2022-11-14T01:29:49;0.22;;;0.17;;
45909;SDS011;31622;55.416;37.840;2022-11-14T01:32:33;0.63;;;0.20;;
45909;SDS011;31622;55.416;37.840;2022-11-14T01:35:17;1.00;;;0.20;;
45909;SDS011;31622;55.416;37.840;2022-11-14T01:38:01;0.80;;;0.30;;
45909;SDS011;31622;55.416;37.840;2022-11-14T01:40:45;0.40;;;0.20;;
45909;SDS011;31622;55.416;37.840;2022-11-14T01:43:30;0.25;;;0.13;;
45909;SDS011;31622;55.416;37.840;2022-11-14T01:49:19;0.63;;;0.22;;
45909;SDS011;31622;55.416;37.840;2022-11-14T01:52:09;0.57;;;0.20;;
45909;SDS011;31622;55.416;37.840;2022-11-14T01:54:59;0.55;;;0.20;;
45909;SDS011;31622;55.416;37.840;2022-11-14T01:57:45;1.13;;;0.25;;
45909;SDS011;31622;55.416;37.840;2022-11-14T02:00:29;0.75;;;0.20;;
45909;SDS011;31622;55.416;37.840;2022-11-14T02:03:14;1.65;;;0.20;;
45909;SDS011;31622;55.416;37.840;2022-11-14T02:05:59;0.55;;;0.10;;
45909;SDS011;31622;55.416;37.840;2022-11-14T02:08:44;0.35;;;0.10;;
45909;SDS011;31622;55.416;37.840;2022-11-14T02:11:30;0.80;;;0.10;;
45909;SDS011;31622;55.416;37.840;2022-11-14T02:14:16;1.45;;;0.20;;
45909;SDS011;31622;55.416;37.840;2022-11-14T02:17:00;12.38;;;0.30;;
45909;SDS011;31622;55.416;37.840;2022-11-14T02:19:51;5.15;;;0.68;;
45909;SDS011;31622;55.416;37.840;2022-11-14T02:22:37;5.18;;;0.70;;
45909;SDS011;31622;55.416;37.840;2022-11-14T02:25:23;1.92;;;0.40;;
45909;SDS011;31622;55.416;37.840;2022-11-14T02:28:08;2.72;;;0.40;;
45909;SDS011;31622;55.416;37.840;2022-11-14T02:30:52;2.58;;;0.30;;
45909;SDS011;31622;55.416;37.840;2022-11-14T02:33:36;0.30;;;0.10;;
45909;SDS011;31622;55.416;37.840;2022-11-14T02:36:20;0.80;;;0.30;;
45909;SDS011;31622;55.416;37.840;2022-11-14T02:39:04;0.47;;;0.20;;
45909;SDS011;31622;55.416;37.840;2022-11-14T02:41:49;0.52;;;0.17;;
45909;SDS011;31622;55.416;37.840;2022-11-14T02:44:33;1.13;;;0.20;;
45909;SDS011;31622;55.416;37.840;2022-11-14T02:47:17;0.60;;;0.20;;
45909;SDS011;31622;55.416;37.840;2022-11-14T02:50:01;1.02;;;0.20;;
45909;SDS011;31622;55.416;37.840;2022-11-14T02:52:46;2.80;;;0.20;;
45909;SDS011;31622;55.416;37.840;2022-11-14T02:55:29;1.42;;;0.10;;
45909;SDS011;31622;55.416;37.840;2022-11-14T02:58:13;2.42;;;0.20;;
45909;SDS011;31622;55.416;37.840;2022-11-14T03:00:57;1.75;;;0.30;;
45909;SDS011;31622;55.416;37.840;2022-11-14T03:03:41;2.42;;;0.20;;
45909;SDS011;31622;55.416;37.840;2022-11-14T03:06:25;1.98;;;0.17;;
45909;SDS011;31622;55.416;37.840;2022-11-14T03:09:09;1.27;;;0.30;;
45909;SDS011;31622;55.416;37.840;2022-11-14T03:11:53;0.85;;;0.10;;
45909;SDS011;31622;55.416;37.840;2022-11-14T03:14:37;1.75;;;0.10;;
45909;SDS011;31622;55.416;37.840;2022-11-14T03:17:21;0.77;;;0.20;;
45909;SDS011;31622;55.416;37.840;2022-11-14T03:20:07;1.05;;;0.25;;
45909;SDS011;31622;55.416;37.840;2022-11-14T03:22:52;3.00;;;0.70;;
45909;SDS011;31622;55.416;37.840;2022-11-14T03:25:35;1.05;;;0.13;;
45909;SDS011;31622;55.416;37.840;2022-11-14T03:28:19;1.42;;;0.55;;
45909;SDS011;31622;55.416;37.840;2022-11-14T03:31:03;0.60;;;0.30;;
45909;SDS011;31622;55.416;37.840;2022-11-14T03:33:48;1.50;;;0.35;;
45909;SDS011;31622;55.416;37.840;2022-11-14T03:36:33;1.92;;;0.22;;
45909;SDS011;31622;55.416;37.840;2022-11-14T03:39:17;0.60;;;0.17;;
45909;SDS011;31622;55.416;37.840;2022-11-14T03:42:01;0.52;;;0.15;;
45909;SDS011;31622;55.416;37.840;2022-11-14T03:44:45;1.08;;;0.30;;
45909;SDS011;31622;55.416;37.840;2022-11-14T03:47:29;0.73;;;0.30;;
45909;SDS011;31622;55.416;37.840;2022-11-14T03:50:13;1.50;;;0.40;;
45909;SDS011;31622;55.416;37.840;2022-11-14T03:52:57;0.57;;;0.28;;
45909;SDS011;31622;55.416;37.840;2022-11-14T03:55:42;0.63;;;0.22;;
45909;SDS011;31622;55.416;37.840;2022-11-14T03:58:26;0.98;;;0.43;;
45909;SDS011;31622;55.416;37.840;2022-11-14T04:01:10;0.82;;;0.32;;
45909;SDS011;31622;55.416;37.840;2022-11-14T04:03:54;1.90;;;0.40;;
45909;SDS011;31622;55.416;37.840;2022-11-14T04:06:39;0.63;;;0.30;;
45909;SDS011;31622;55.416;37.840;2022-11-14T04:09:23;0.63;;;0.20;;
45909;SDS011;31622;55.416;37.840;2022-11-14T04:12:07;2.85;;;0.40;;
45909;SDS011;31622;55.416;37.840;2022-11-14T04:14:51;0.95;;;0.20;;
45909;SDS011;31622;55.416;37.840;2022-11-14T04:17:35;5.53;;;0.50;;
45909;SDS011;31622;55.416;37.840;2022-11-14T04:20:19;1.42;;;0.30;;
45909;SDS011;31622;55.416;37.840;2022-11-14T04:23:03;1.58;;;0.55;;
45909;SDS011;31622;55.416;37.840;2022-11-14T04:25:47;1.10;;;0.40;;
45909;SDS011;31622;55.416;37.840;2022-11-14T04:28:32;3.55;;;0.55;;
45909;SDS011;31622;55.416;37.840;2022-11-14T04:31:16;0.77;;;0.50;;
45909;SDS011;31622;55.416;37.840;2022-11-14T04:34:00;1.75;;;0.40;;
45909;SDS011;31622;55.416;37.840;2022-11-14T04:36:44;1.67;;;0.40;;
45909;SDS011;31622;55.416;37.840;2022-11-14T04:39:28;1.17;;;0.47;;
45909;SDS011;31622;55.416;37.840;2022-11-14T04:42:12;2.17;;;0.80;;
45909;SDS011;31622;55.416;37.840;2022-11-14T04:44:56;1.45;;;0.50;;
45909;SDS011;31622;55.416;37.840;2022-11-14T04:47:40;1.17;;;0.40;;
45909;SDS011;31622;55.416;37.840;2022-11-14T04:50:25;1.30;;;0.40;;
45909;SDS011;31622;55.416;37.840;2022-11-14T04:53:08;1.52;;;0.50;;
45909;SDS011;31622;55.416;37.840;2022-11-14T04:55:52;4.03;;;1.17;;
45909;SDS011;31622;55.416;37.840;2022-11-14T04:58:36;4.53;;;0.93;;
45909;SDS011;31622;55.416;37.840;2022-11-14T05:01:20;3.55;;;0.75;;
45909;SDS011;31622;55.416;37.840;2022-11-14T05:04:05;3.45;;;1.90;;
45909;SDS011;31622;55.416;37.840;2022-11-14T05:06:49;5.38;;;2.40;;
45909;SDS011;31622;55.416;37.840;2022-11-14T05:09:33;10.23;;;3.33;;
45909;SDS011;31622;55.416;37.840;2022-11-14T05:12:17;9.43;;;2.70;;
45909;SDS011;31622;55.416;37.840;2022-11-14T05:15:01;7.30;;;2.42;;
45909;SDS011;31622;55.416;37.840;2022-11-14T05:17:45;7.88;;;2.30;;
45909;SDS011;31622;55.416;37.840;2022-11-14T05:20:29;5.70;;;1.88;;
45909;SDS011;31622;55.416;37.840;2022-11-14T05:23:20;7.82;;;2.08;;
45909;SDS011;31622;55.416;37.840;2022-11-14T05:28:51;6.35;;;1.60;;
45909;SDS011;31622;55.416;37.840;2022-11-14T05:31:35;4.25;;;1.40;;
45909;SDS011;31622;55.416;37.840;2022-11-14T05:34:19;2.92;;;1.20;;
45909;SDS011;31622;55.416;37.840;2022-11-14T05:37:03;3.97;;;1.25;;
45909;SDS011;31622;55.416;37.840;2022-11-14T05:39:48;4.95;;;1.23;;
45909;SDS011;31622;55.416;37.840;2022-11-14T05:42:32;3.40;;;1.10;;
45909;SDS011;31622;55.416;37.840;2022-11-14T05:45:16;3.42;;;1.25;;
45909;SDS011;31622;55.416;37.840;2022-11-14T05:48:00;4.03;;;1.20;;
45909;SDS011;31622;55.416;37.840;2022-11-14T05:50:46;3.78;;;1.02;;
45909;SDS011;31622;55.416;37.840;2022-11-14T05:53:30;4.63;;;1.40;;
45909;SDS011;31622;55.416;37.840;2022-11-14T05:56:16;2.42;;;1.15;;
45909;SDS011;31622;55.416;37.840;2022-11-14T05:59:00;4.00;;;0.80;;
45909;SDS011;31622;55.416;37.840;2022-11-14T06:01:45;4.95;;;1.33;;
45909;SDS011;31622;55.416;37.840;2022-11-14T06:04:29;7.95;;;1.00;;
45909;SDS011;31622;55.416;37.840;2022-11-14T06:07:13;4.03;;;0.80;;
45909;SDS011;31622;55.416;37.840;2022-11-14T06:09:57;5.93;;;1.38;;
45909;SDS011;31622;55.416;37.840;2022-11-14T06:12:41;2.70;;;0.82;;
45909;SDS011;31622;55.416;37.840;2022-11-14T06:15:25;2.72;;;1.10;;
45909;SDS011;31622;55.416;37.840;2022-11-14T06:18:09;4.50;;;1.02;;
45909;SDS011;31622;55.416;37.840;2022-11-14T06:20:53;4.75;;;1.00;;
45909;SDS011;31622;55.416;37.840;2022-11-14T06:23:37;8.55;;;1.15;;
45909;SDS011;31622;55.416;37.840;2022-11-14T06:26:22;7.82;;;0.80;;
45909;SDS011;31622;55.416;37.840;2022-11-14T06:29:09;3.33;;;0.70;;
45909;SDS011;31622;55.416;37.840;2022-11-14T06:31:53;4.55;;;0.90;;
45909;SDS011;31622;55.416;37.840;2022-11-14T06:34:37;5.18;;;0.98;;
45909;SDS011;31622;55.416;37.840;2022-11-14T06:37:21;3.00;;;0.90;;
45909;SDS011;31622;55.416;37.840;2022-11-14T06:40:05;2.33;;;1.00;;
45909;SDS011;31622;55.416;37.840;2022-11-14T06:42:50;3.72;;;0.90;;
45909;SDS011;31622;55.416;37.840;2022-11-14T06:45:34;5.20;;;1.45;;
45909;SDS011;31622;55.416;37.840;2022-11-14T06:48:18;2.15;;;0.90;;
45909;SDS011;31622;55.416;37.840;2022-11-14T06:51:02;5.95;;;1.27;;
45909;SDS011;31622;55.416;37.840;2022-11-14T06:53:47;2.33;;;0.75;;
45909;SDS011;31622;55.416;37.840;2022-11-14T06:56:31;3.28;;;0.82;;
45909;SDS011;31622;55.416;37.840;2022-11-14T06:59:16;4.65;;;0.90;;
45909;SDS011;31622;55.416;37.840;2022-11-14T07:02:01;9.20;;;1.20;;
45909;SDS011;31622;55.416;37.840;2022-11-14T07:04:45;5.38;;;1.63;;
45909;SDS011;31622;55.416;37.840;2022-11-14T07:07:30;5.88;;;1.35;;
45909;SDS011;31622;55.416;37.840;2022-11-14T07:10:14;7.35;;;1.83;;
45909;SDS011;31622;55.416;37.840;2022-11-14T07:12:58;8.45;;;1.20;;
45909;SDS011;31622;55.416;37.840;2022-11-14T07:15:49;4.13;;;1.13;;
45909;SDS011;31622;55.416;37.840;2022-11-14T07:18:34;3.20;;;1.20;;
45909;SDS011;31622;55.416;37.840;2022-11-14T07:21:18;6.60;;;1.50;;
45909;SDS011;31622;55.416;37.840;2022-11-14T07:24:02;5.05;;;1.52;;
45909;SDS011;31622;55.416;37.840;2022-11-14T07:26:46;4.95;;;1.25;;
45909;SDS011;31622;55.416;37.840;2022-11-14T07:29:30;3.90;;;1.00;;
45909;SDS011;31622;55.416;37.840;2022-11-14T07:32:14;2.67;;;0.90;;
45909;SDS011;31622;55.416;37.840;2022-11-14T07:34:59;4.70;;;1.13;;
45909;SDS011;31622;55.416;37.840;2022-11-14T07:37:43;5.05;;;1.30;;
45909;SDS011;31622;55.416;37.840;2022-11-14T07:40:27;2.53;;;0.95;;
45909;SDS011;31622;55.416;37.840;2022-11-14T07:43:11;3.45;;;1.00;;
45909;SDS011;31622;55.416;37.840;2022-11-14T07:45:59;6.53;;;1.40;;
45909;SDS011;31622;55.416;37.840;2022-11-14T07:48:44;6.07;;;0.98;;
45909;SDS011;31622;55.416;37.840;2022-11-14T07:51:28;5.13;;;1.42;;
45909;SDS011;31622;55.416;37.840;2022-11-14T07:54:12;3.58;;;1.00;;
45909;SDS011;31622;55.416;37.840;2022-11-14T07:56:56;5.05;;;1.35;;
45909;SDS011;31622;55.416;37.840;2022-11-14T07:59:40;5.53;;;1.17;;
45909;SDS011;31622;55.416;37.840;2022-11-14T08:02:25;6.32;;;1.40;;
45909;SDS011;31622;55.416;37.840;2022-11-14T08:05:09;6.88;;;1.52;;
45909;SDS011;31622;55.416;37.840;2022-11-14T08:07:53;7.35;;;1.77;;
45909;SDS011;31622;55.416;37.840;2022-11-14T08:10:37;4.40;;;1.73;;
45909;SDS011;31622;55.416;37.840;2022-11-14T08:13:21;5.80;;;1.50;;
45909;SDS011;31622;55.416;37.840;2022-11-14T08:16:07;5.15;;;1.38;;
45909;SDS011;31622;55.416;37.840;2022-11-14T08:18:52;3.83;;;1.50;;
45909;SDS011;31622;55.416;37.840;2022-11-14T08:21:36;8.63;;;2.38;;
45909;SDS011;31622;55.416;37.840;2022-11-14T08:24:20;4.07;;;1.45;;
45909;SDS011;31622;55.416;37.840;2022-11-14T08:27:04;7.63;;;1.75;;
45909;SDS011;31622;55.416;37.840;2022-11-14T08:29:48;8.40;;;1.60;;
45909;SDS011;31622;55.416;37.840;2022-11-14T08:32:33;5.28;;;1.33;;
45909;SDS011;31622;55.416;37.840;2022-11-14T08:35:18;5.25;;;1.60;;
45909;SDS011;31622;55.416;37.840;2022-11-14T08:38:02;6.22;;;1.60;;
45909;SDS011;31622;55.416;37.840;2022-11-14T08:40:46;5.72;;;1.85;;
45909;SDS011;31622;55.416;37.840;2022-11-14T08:43:30;3.55;;;1.27;;
45909;SDS011;31622;55.416;37.840;2022-11-14T08:46:14;4.47;;;1.48;;
45909;SDS011;31622;55.416;37.840;2022-11-14T08:48:58;4.57;;;1.42;;
45909;SDS011;31622;55.416;37.840;2022-11-14T08:51:42;5.28;;;1.13;;
45909;SDS011;31622;55.416;37.840;2022-11-14T08:54:26;3.35;;;1.20;;
45909;SDS011;31622;55.416;37.840;2022-11-14T08:57:10;3.50;;;1.20;;
45909;SDS011;31622;55.416;37.840;2022-11-14T08:59:57;5.03;;;1.13;;
45909;SDS011;31622;55.416;37.840;2022-11-14T09:02:42;5.65;;;1.08;;
45909;SDS011;31622;55.416;37.840;2022-11-14T09:05:26;3.88;;;1.27;;
45909;SDS011;31622;55.416;37.840;2022-11-14T09:08:10;5.82;;;1.42;;
45909;SDS011;31622;55.416;37.840;2022-11-14T09:10:54;4.25;;;1.13;;
45909;SDS011;31622;55.416;37.840;2022-11-14T09:13:42;1.83;;;1.00;;
45909;SDS011;31622;55.416;37.840;2022-11-14T09:16:26;4.45;;;1.02;;
45909;SDS011;31622;55.416;37.840;2022-11-14T09:19:10;2.17;;;0.80;;
45909;SDS011;31622;55.416;37.840;2022-11-14T09:21:54;3.03;;;0.93;;
45909;SDS011;31622;55.416;37.840;2022-11-14T09:24:38;4.82;;;0.77;;
45909;SDS011;31622;55.416;37.840;2022-11-14T09:27:22;3.00;;;0.95;;
45909;SDS011;31622;55.416;37.840;2022-11-14T09:30:09;3.15;;;0.80;;
45909;SDS011;31622;55.416;37.840;2022-11-14T09:32:57;3.40;;;1.02;;
45909;SDS011;31622;55.416;37.840;2022-11-14T09:35:44;2.33;;;0.70;;
45909;SDS011;31622;55.416;37.840;2022-11-14T09:38:29;4.22;;;0.90;;
45909;SDS011;31622;55.416;37.840;2022-11-14T09:41:34;2.90;;;0.90;;
45909;SDS011;31622;55.416;37.840;2022-11-14T09:47:54;2.22;;;0.98;;
45909;SDS011;31622;55.416;37.840;2022-11-14T09:50:43;3.25;;;1.10;;
45909;SDS011;31622;55.416;37.840;2022-11-14T09:53:45;3.05;;;1.10;;
45909;SDS011;31622;55.416;37.840;2022-11-14T09:56:32;3.25;;;0.70;;
45909;SDS011;31622;55.416;37.840;2022-11-14T09:59:17;2.50;;;0.90;;
45909;SDS011;31622;55.416;37.840;2022-11-14T10:14:07;7.35;;;1.77;;
45909;SDS011;31622;55.416;37.840;2022-11-14T10:26:14;2.67;;;0.90;;
45909;SDS011;31622;55.416;37.840;2022-11-14T10:35:36;4.88;;;1.50;;
45909;SDS011;31622;55.416;37.840;2022-11-14T10:38:34;3.10;;;0.90;;
45909;SDS011;31622;55.416;37.840;2022-11-14T10:41:43;2.47;;;0.75;;
45909;SDS011;31622;55.416;37.840;2022-11-14T10:44:32;3.28;;;1.08;;
45909;SDS011;31622;55.416;37.840;2022-11-14T10:47:20;3.90;;;1.02;;
45909;SDS011;31622;55.416;37.840;2022-11-14T10:50:27;3.03;;;0.95;;
45909;SDS011;31622;55.416;37.840;2022-11-14T10:56:32;3.40;;;1.20;;
45909;SDS011;31622;55.416;37.840;2022-11-14T10:59:16;2.72;;;1.00;;
45909;SDS011;31622;55.416;37.840;2022-11-14T11:02:00;2.83;;;1.05;;
45909;SDS011;31622;55.416;37.840;2022-11-14T11:04:44;4.07;;;0.90;;
45909;SDS011;31622;55.416;37.840;2022-11-14T11:07:29;5.78;;;0.80;;
45909;SDS011;31622;55.416;37.840;2022-11-14T11:10:32;2.92;;;1.30;;
45909;SDS011;31622;55.416;37.840;2022-11-14T11:13:39;5.93;;;1.00;;
45909;SDS011;31622;55.416;37.840;2022-11-14T11:16:38;4.38;;;1.50;;
45909;SDS011;31622;55.416;37.840;2022-11-14T11:19:23;6.25;;;1.20;;
45909;SDS011;31622;55.416;37.840;2022-11-14T11:25:26;6.32;;;0.93;;
45909;SDS011;31622;55.416;37.840;2022-11-14T11:28:14;6.85;;;0.98;;
45909;SDS011;31622;55.416;37.840;2022-11-14T11:31:05;2.45;;;0.90;;
45909;SDS011;31622;55.416;37.840;2022-11-14T11:33:50;3.67;;;1.23;;
45909;SDS011;31622;55.416;37.840;2022-11-14T11:36:37;4.28;;;1.25;;
45909;SDS011;31622;55.416;37.840;2022-11-14T11:39:28;2.97;;;1.00;;
45909;SDS011;31622;55.416;37.840;2022-11-14T11:42:18;2.58;;;0.88;;
45909;SDS011;31622;55.416;37.840;2022-11-14T11:45:24;3.97;;;1.33;;
45909;SDS011;31622;55.416;37.840;2022-11-14T11:48:32;2.35;;;1.02;;
45909;SDS011;31622;55.416;37.840;2022-11-14T11:51:18;2.20;;;1.00;;
45909;SDS011;31622;55.416;37.840;2022-11-14T11:54:08;4.70;;;1.40;;
45909;SDS011;31622;55.416;37.840;2022-11-14T11:56:58;4.90;;;0.98;;
45909;SDS011;31622;55.416;37.840;2022-11-14T11:59:53;4.97;;;0.88;;
45909;SDS011;31622;55.416;37.840;2022-11-14T12:02:44;4.55;;;0.90;;
45909;SDS011;31622;55.416;37.840;2022-11-14T12:05:40;3.35;;;1.08;;
45909;SDS011;31622;55.416;37.840;2022-11-14T12:11:26;8.32;;;1.50;;
45909;SDS011;31622;55.416;37.840;2022-11-14T12:20:19;4.13;;;1.20;;
45909;SDS011;31622;55.416;37.840;2022-11-14T12:30:12;5.10;;;1.45;;
45909;SDS011;31622;55.416;37.840;2022-11-14T12:33:20;3.08;;;1.02;;
45909;SDS011;31622;55.416;37.840;2022-11-14T12:36:13;5.45;;;1.13;;
45909;SDS011;31622;55.416;37.840;2022-11-14T12:38:57;5.43;;;1.42;;
45909;SDS011;31622;55.416;37.840;2022-11-14T12:41:42;4.88;;;1.20;;
45909;SDS011;31622;55.416;37.840;2022-11-14T12:47:12;2.90;;;0.93;;
45909;SDS011;31622;55.416;37.840;2022-11-14T12:50:00;3.15;;;1.10;;
45909;SDS011;31622;55.416;37.840;2022-11-14T12:52:47;4.07;;;1.15;;
45909;SDS011;31622;55.416;37.840;2022-11-14T13:01:17;3.08;;;1.30;;
45909;SDS011;31622;55.416;37.840;2022-11-14T13:10:22;4.25;;;1.30;;
45909;SDS011;31622;55.416;37.840;2022-11-14T13:13:13;5.70;;;1.50;;
45909;SDS011;31622;55.416;37.840;2022-11-14T13:16:24;4.28;;;1.23;;
45909;SDS011;31622;55.416;37.840;2022-11-14T13:19:28;3.30;;;0.93;;
45909;SDS011;31622;55.416;37.840;2022-11-14T13:22:36;2.90;;;0.93;;
45909;SDS011;31622;55.416;37.840;2022-11-14T13:25:25;3.25;;;1.10;;
45909;SDS011;31622;55.416;37.840;2022-11-14T13:37:38;5.35;;;0.98;;
45909;SDS011;31622;55.416;37.840;2022-11-14T13:52:45;4.30;;;1.15;;
45909;SDS011;31622;55.416;37.840;2022-11-14T14:01:41;3.08;;;1.20;;
45909;SDS011;31622;55.416;37.840;2022-11-14T14:13:30;6.93;;;1.50;;
45909;SDS011;31622;55.416;37.840;2022-11-14T14:31:32;9.45;;;1.65;;
45909;SDS011;31622;55.416;37.840;2022-11-14T14:34:28;7.38;;;1.40;;
45909;SDS011;31622;55.416;37.840;2022-11-14T14:37:23;8.80;;;1.45;;
45909;SDS011;31622;55.416;37.840;2022-11-14T14:40:20;3.92;;;1.48;;
45909;SDS011;31622;55.416;37.840;2022-11-14T14:43:27;4.60;;;1.15;;
45909;SDS011;31622;55.416;37.840;2022-11-14T14:46:15;6.55;;;1.50;;
45909;SDS011;31622;55.416;37.840;2022-11-14T14:49:00;3.17;;;1.52;;
45909;SDS011;31622;55.416;37.840;2022-11-14T14:51:46;3.85;;;1.20;;
45909;SDS011;31622;55.416;37.840;2022-11-14T14:54:30;5.07;;;1.38;;
45909;SDS011;31622;55.416;37.840;2022-11-14T14:57:15;3.53;;;1.67;;
45909;SDS011;31622;55.416;37.840;2022-11-14T15:00:03;6.65;;;1.33;;
45909;SDS011;31622;55.416;37.840;2022-11-14T15:02:50;5.93;;;1.35;;
45909;SDS011;31622;55.416;37.840;2022-11-14T15:05:36;6.93;;;1.15;;
45909;SDS011;31622;55.416;37.840;2022-11-14T15:08:21;5.97;;;1.65;;
45909;SDS011;31622;55.416;37.840;2022-11-14T15:11:05;5.60;;;1.85;;
45909;SDS011;31622;55.416;37.840;2022-11-14T15:13:51;3.65;;;1.50;;
45909;SDS011;31622;55.416;37.840;2022-11-14T15:16:37;3.95;;;1.40;;
45909;SDS011;31622;55.416;37.840;2022-11-14T15:19:22;8.00;;;2.28;;
45909;SDS011;31622;55.416;37.840;2022-11-14T15:25:16;4.82;;;1.30;;
45909;SDS011;31622;55.416;37.840;2022-11-14T15:28:02;6.65;;;1.60;;
45909;SDS011;31622;55.416;37.840;2022-11-14T15:30:59;5.45;;;1.33;;
45909;SDS011;31622;55.416;37.840;2022-11-14T15:33:45;4.10;;;1.00;;
45909;SDS011;31622;55.416;37.840;2022-11-14T15:40:15;4.28;;;1.17;;
45909;SDS011;31622;55.416;37.840;2022-11-14T15:46:41;2.65;;;1.10;;
45909;SDS011;31622;55.416;37.840;2022-11-14T15:49:26;3.92;;;1.38;;
45909;SDS011;31622;55.416;37.840;2022-11-14T15:52:21;3.25;;;1.10;;
45909;SDS011;31622;55.416;37.840;2022-11-14T15:55:15;2.30;;;1.10;;
45909;SDS011;31622;55.416;37.840;2022-11-14T15:58:01;4.15;;;1.40;;
45909;SDS011;31622;55.416;37.840;2022-11-14T16:00:49;3.45;;;1.40;;
45909;SDS011;31622;55.416;37.840;2022-11-14T16:03:34;3.22;;;0.90;;
45909;SDS011;31622;55.416;37.840;2022-11-14T16:06:18;4.35;;;1.00;;
45909;SDS011;31622;55.416;37.840;2022-11-14T16:09:03;2.55;;;1.20;;
45909;SDS011;31622;55.416;37.840;2022-11-14T16:11:47;2.55;;;1.05;;
45909;SDS011;31622;55.416;37.840;2022-11-14T16:14:31;3.13;;;1.00;;
45909;SDS011;31622;55.416;37.840;2022-11-14T16:17:15;6.30;;;1.35;;
45909;SDS011;31622;55.416;37.840;2022-11-14T16:20:01;2.92;;;1.13;;
45909;SDS011;31622;55.416;37.840;2022-11-14T16:22:47;2.38;;;0.88;;
45909;SDS011;31622;55.416;37.840;2022-11-14T16:25:32;2.08;;;0.80;;
45909;SDS011;31622;55.416;37.840;2022-11-14T16:28:15;5.82;;;1.33;;
45909;SDS011;31622;55.416;37.840;2022-11-14T16:30:59;4.03;;;1.00;;
45909;SDS011;31622;55.416;37.840;2022-11-14T16:33:43;4.53;;;1.20;;
45909;SDS011;31622;55.416;37.840;2022-11-14T16:36:27;4.13;;;1.10;;
45909;SDS011;31622;55.416;37.840;2022-11-14T16:39:11;8.27;;;0.90;;
45909;SDS011;31622;55.416;37.840;2022-11-14T16:41:59;3.50;;;1.23;;
45909;SDS011;31622;55.416;37.840;2022-11-14T16:44:48;4.03;;;0.80;;
45909;SDS011;31622;55.416;37.840;2022-11-14T16:47:32;3.20;;;0.82;;
45909;SDS011;31622;55.416;37.840;2022-11-14T16:50:17;3.20;;;0.70;;
45909;SDS011;31622;55.416;37.840;2022-11-14T16:53:02;4.55;;;1.00;;
45909;SDS011;31622;55.416;37.840;2022-11-14T16:55:46;5.78;;;1.10;;
45909;SDS011;31622;55.416;37.840;2022-11-14T16:58:30;11.98;;;1.13;;
45909;SDS011;31622;55.416;37.840;2022-11-14T17:01:13;4.70;;;0.80;;
45909;SDS011;31622;55.416;37.840;2022-11-14T17:03:59;4.18;;;0.65;;
45909;SDS011;31622;55.416;37.840;2022-11-14T17:06:43;3.80;;;1.02;;
45909;SDS011;31622;55.416;37.840;2022-11-14T17:09:27;1.73;;;0.70;;
45909;SDS011;31622;55.416;37.840;2022-11-14T17:12:11;3.03;;;1.40;;
45909;SDS011;31622;55.416;37.840;2022-11-14T17:14:55;1.80;;;0.93;;
45909;SDS011;31622;55.416;37.840;2022-11-14T17:17:39;5.10;;;1.30;;
45909;SDS011;31622;55.416;37.840;2022-11-14T17:20:23;2.88;;;1.00;;
45909;SDS011;31622;55.416;37.840;2022-11-14T17:23:07;2.97;;;0.90;;
45909;SDS011;31622;55.416;37.840;2022-11-14T17:25:52;3.50;;;0.90;;
45909;SDS011;31622;55.416;37.840;2022-11-14T17:28:43;4.43;;;0.60;;
45909;SDS011;31622;55.416;37.840;2022-11-14T17:31:29;3.67;;;1.10;;
45909;SDS011;31622;55.416;37.840;2022-11-14T17:34:14;2.10;;;0.90;;
45909;SDS011;31622;55.416;37.840;2022-11-14T17:36:58;2.05;;;0.80;;
45909;SDS011;31622;55.416;37.840;2022-11-14T17:39:42;2.13;;;0.80;;
45909;SDS011;31622;55.416;37.840;2022-11-14T17:42:26;2.08;;;0.75;;
45909;SDS011;31622;55.416;37.840;2022-11-14T17:45:10;3.67;;;1.13;;
45909;SDS011;31622;55.416;37.840;2022-11-14T17:47:54;2.00;;;0.90;;
45909;SDS011;31622;55.416;37.840;2022-11-14T17:50:38;4.18;;;0.88;;
45909;SDS011;31622;55.416;37.840;2022-11-14T17:53:23;1.70;;;0.60;;
45909;SDS011;31622;55.416;37.840;2022-11-14T17:56:14;2.85;;;0.70;;
45909;SDS011;31622;55.416;37.840;2022-11-14T17:58:59;1.20;;;0.50;;
45909;SDS011;31622;55.416;37.840;2022-11-14T18:01:43;2.35;;;0.70;;
45909;SDS011;31622;55.416;37.840;2022-11-14T18:04:28;1.52;;;0.70;;
45909;SDS011;31622;55.416;37.840;2022-11-14T18:07:14;3.45;;;0.60;;
45909;SDS011;31622;55.416;37.840;2022-11-14T18:09:58;3.53;;;0.70;;
45909;SDS011;31622;55.416;37.840;2022-11-14T18:12:42;1.40;;;0.63;;
45909;SDS011;31622;55.416;37.840;2022-11-14T18:15:26;1.58;;;0.68;;
45909;SDS011;31622;55.416;37.840;2022-11-14T18:18:10;2.40;;;0.57;;
45909;SDS011;31622;55.416;37.840;2022-11-14T18:20:54;3.17;;;0.85;;
45909;SDS011;31622;55.416;37.840;2022-11-14T18:23:38;2.53;;;0.60;;
45909;SDS011;31622;55.416;37.840;2022-11-14T18:26:23;3.60;;;0.88;;
45909;SDS011;31622;55.416;37.840;2022-11-14T18:29:12;2.03;;;0.57;;
45909;SDS011;31622;55.416;37.840;2022-11-14T18:31:58;1.27;;;0.43;;
45909;SDS011;31622;55.416;37.840;2022-11-14T18:34:42;1.70;;;0.57;;
45909;SDS011;31622;55.416;37.840;2022-11-14T18:37:26;1.77;;;0.80;;
45909;SDS011;31622;55.416;37.840;2022-11-14T18:40:11;2.95;;;0.60;;
45909;SDS011;31622;55.416;37.840;2022-11-14T18:42:55;2.42;;;0.70;;